Forside
METAR-TAF:

METAR-TAF

Lufthavne :

Black River Falls, Wisconsin, USA

Breddekreds: 44-15-03N, længdekreds: 090-51-19W, højde: 255 m

Aktuelle vejr

Denne rapport blev lavet for 15 minutter siden, kl. 14:15 UTC
Vind 5 kt fra øst
Temperatur 9°C
Fugtighed 43%
Tryk 1030 hPa
Sigt: 16.1 km
skyfri

METAR: KBCK 111415Z AUTO 09005KT 10SM CLR 09/M03 A3041 RMK AO2 T00861035

Tid: 09:30 (14:30 UTC)


TAF: fraværende

Vejrobservationer og prognoser fra mere end 4000 lufthavne (METAR og TAF).

De gule og røde prikker repræsenterer de meteorologiske stationer.

Flyt musen over at se navnet på stationen.

Så klik over at se vejr observationer og prognoser.

At skifte det kort: Klik på de grønne knapper med et sort kors for at zoome ind; på den grønne knap med en bindestreg for at zoome ud; eller på de grønne pile for tilstødende kort.


METAR-TAF: